Woodville, New York
Current Conditions -  °F | °C
As of 9:56 AM on Friday 19 Dec 2014 (Local Time) from KART Reporting Station
Overcast Overcast  
Wind Chill: 18°   Ceiling: 1400
Heat Index: 25°   Visibility: 10mi
Dew Point: 16°   Wind: 6mph
Humidity: 69%   Direction: 340°NNW
Pressure: 30.14"   Gusts: NA
Location:  43.8534°N, 76.251°W
Report Text: KART 191456Z AUTO 34005KT 10SM OVC014 M04/M09 A3014 RMK AO2 SLP213 60000 I3000 T10391089 51011
Loading
Personal Weather Stations






























Interactive Weather Map New forecast layout! Learn more

10-Day Weather Forecast

Advertisements
Track Severe Weather on mobile